LIBR Airport Information

Runway Information
Runway 05 Length 6132 ft width 148 ft
Elevation 46 ft Threshold 0 ft Heading 53
Runway 23 Length 6132 ft Width 148 ft
Elevation 13 ft Threshold 230 ft Heading 233
Runway 13 Length 8307 ft width 148 ft
Elevation 29 ft Threshold 0 ft Heading 137
Runway 31 Length 8307 ft Width 148 ft
Elevation 26 ft Threshold 0 ft Heading 317
Airport Frequencies
Type APP Name BRINDISI A Frequency 36.365 MHZ
Type APP Name BRINDISI A Frequency 118.4 MHZ
Type GND Name GND Frequency 31.355 MHZ
Type ILS RWY 32 Name Frequency 109.5 MHZ
Type TWR Name BRINDISI T Frequency 118.1 MHZ
Airport Navaids
Type VORTAC Name Brindisi Frequency 113200 KHZ
Type NDB Name Brindisi Frequency 364 KHZ
Airport Weather Information & NOTAM
ADDS - METARS form results

(2246 UTC 16 October 2018)
Data provider http://aviationweather.gov/metar/data/
 
METAR text: LIBR 162220Z 14003KT CAVOK 19/17 Q1019
Conditions at: LIBR (BRINDISI/CASALE , IT) observed 2220 UTC 16 October 2018
Temperature: 19.0°C (66°F)
Dewpoint: 17.0°C (63°F) [RH = 88%]
Pressure (altimeter): 30.09 inches Hg (1019.0 mb)
Winds: from the SE (140 degrees) at 3 MPH (3 knots; 1.5 m/s)
Visibility: 6 or more miles (10+ km)
Ceiling: ceiling and visibility are OK
Clouds: unknown
Weather: no significant weather observed at this time

METAR text: LIBR 162150Z 15005KT CAVOK 19/17 Q1019
Conditions at: LIBR (BRINDISI/CASALE , IT) observed 2150 UTC 16 October 2018
Temperature: 19.0°C (66°F)
Dewpoint: 17.0°C (63°F) [RH = 88%]
Pressure (altimeter): 30.09 inches Hg (1019.0 mb)
Winds: from the SSE (150 degrees) at 6 MPH (5 knots; 2.6 m/s)
Visibility: 6 or more miles (10+ km)
Ceiling: ceiling and visibility are OK
Clouds: unknown
Weather: no significant weather observed at this time

Forecast for: LIBR (BRINDISI/CASALE , IT)
Text: TAF LIBR 161700Z 1618/1718 12010KT 9999 SCT020
Forecast period: 1800 UTC 16 October 2018 to 1800 UTC 17 October 2018
Forecast type: FROM: standard forecast or significant change
Winds: from the ESE (120 degrees) at 12 MPH (10 knots; 5.1 m/s)
Visibility: 6 or more miles 10+ km)
Ceiling: at least 12,000 feet AGL
Clouds: scattered clouds at 2000 feet AGL
Weather: no significant weather forecast for this period
Text: TEMPO 1618/1620 RA
Forecast period: 1800 to 2000 UTC 16 October 2018
Forecast type: TEMPORARY: The following changes expected for less than half the time period
Visibility: missing
Ceiling: unknown
Clouds: missing
Weather: RA  (moderate rain)
Text: TEMPO 1705/1710 RA
Forecast period: 0500 to 1000 UTC 17 October 2018
Forecast type: TEMPORARY: The following changes expected for less than half the time period
Visibility: missing
Ceiling: unknown
Clouds: missing
Weather: RA  (moderate rain)